Time;durP1;ratioP1;P1;durP2;ratioP2;P2;SDS_P1;SDS_P2;PMS_P1;PMS_P2;Temp;Humidity;BMP_temperature;BMP_pressure;BME280_temperature;BME280_humidity;BME280_pressure;Samples;Min_cycle;Max_cycle;Signal;HPM_P1;HPM_P2
2023/01/21 00:02:31;;;;;;;;;;;;;;;7.78;100.00;99799.53;5023099;28;19947;-87
2023/01/21 00:04:56;;;;;;;;;;;;;;;7.80;100.00;99799.50;5034294;28;19921;-84
2023/01/21 00:07:22;;;;;;;;;;;;;;;7.79;100.00;99803.91;5033856;28;20300;-82
2023/01/21 00:09:47;;;;;;;;;;;;;;;7.78;100.00;99802.19;5031051;28;20039;-84
2023/01/21 00:12:22;;;;;;;;;;;;;;;7.78;100.00;99804.81;5014701;28;19925;-86
2023/01/21 00:14:50;;;;;;;;;;;;;;;7.78;100.00;99810.09;5012339;28;20555;-86
2023/01/21 00:17:15;;;;;;;;;;;;;;;7.79;100.00;99813.63;5026875;28;20284;-88
2023/01/21 00:19:41;;;;;;;;;;;;;;;7.77;100.00;99816.28;5027354;28;19996;-83
2023/01/21 00:22:08;;;;;;;;;;;;;;;7.77;100.00;99810.13;5031557;28;19925;-86
2023/01/21 00:24:36;;;;;;;;;;;;;;;7.80;100.00;99812.69;5033875;28;20012;-88
2023/01/21 00:27:02;;;;;;;;;;;;;;;7.77;100.00;99810.13;5033542;28;19987;-84
2023/01/21 00:29:27;;;;;;;;;;;;;;;7.77;100.00;99816.28;5030517;28;21383;-87
2023/01/21 00:31:52;;;;;;;;;;;;;;;7.79;100.00;99826.81;5031114;28;19936;-84
2023/01/21 00:34:18;;;;;;;;;;;;;;;7.78;100.00;99825.91;5032933;28;20415;-84
2023/01/21 00:36:45;;;;;;;;;;;;;;;7.80;100.00;99824.13;5032365;28;19925;-84
2023/01/21 00:39:11;;;;;;;;;;;;;;;7.78;100.00;99828.56;5032898;28;19917;-83
2023/01/21 00:41:36;;;;;;;;;;;;;;;7.78;100.00;99818.00;5032380;28;19995;-84
2023/01/21 00:44:04;;;;;;;;;;;;;;;7.78;100.00;99822.44;5022398;28;19917;-88
2023/01/21 00:46:30;;;;;;;;;;;;;;;7.77;100.00;99826.84;5030297;28;19932;-83
2023/01/21 00:48:55;;;;;;;;;;;;;;;7.76;100.00;99830.38;5031895;28;19913;-84
2023/01/21 00:51:23;;;;;;;;;;;;;;;7.79;100.00;99834.72;5030721;28;19932;-91
2023/01/21 00:53:49;;;;;;;;;;;;;;;7.79;100.00;99830.28;5032852;28;19960;-85
2023/01/21 00:56:14;;;;;;;;;;;;;;;7.78;100.00;99838.25;5032404;28;19921;-84
2023/01/21 00:58:46;;;;;;;;;;;;;;;7.79;100.00;99840.00;5028474;28;19990;-84
2023/01/21 01:01:16;;;;;;;;;;;;;;;7.79;100.00;99840.00;5030330;28;19967;-84
2023/01/21 01:03:41;;;;;;;;;;;;;;;7.80;100.00;99842.59;5029939;28;19925;-85
2023/01/21 01:06:16;;;;;;;;;;;;;;;7.79;100.00;99835.56;5031086;28;19975;-85
2023/01/21 01:08:49;;;;;;;;;;;;;;;7.77;100.00;99847.94;5027508;28;19925;-90
2023/01/21 01:11:15;;;;;;;;;;;;;;;7.81;100.00;99844.28;5028517;28;20440;-83
2023/01/21 01:13:41;;;;;;;;;;;;;;;7.78;100.00;99843.53;5028940;28;19921;-81
2023/01/21 01:16:07;;;;;;;;;;;;;;;7.80;100.00;99855.78;5030464;28;19924;-82
2023/01/21 01:18:34;;;;;;;;;;;;;;;7.80;100.00;99853.13;5027647;28;19929;-83
2023/01/21 01:21:00;;;;;;;;;;;;;;;7.78;100.00;99860.22;5031303;28;19968;-89
2023/01/21 03:23:48;;;;;;;;;;;;;;;7.72;100.00;99981.75;5001555;23;20052;-85
2023/01/21 03:26:15;;;;;;;;;;;;;;;7.73;100.00;99982.59;4997323;28;19929;-85
2023/01/21 03:28:43;;;;;;;;;;;;;;;7.71;100.00;99977.38;4997700;28;19918;-85
2023/01/21 03:31:11;;;;;;;;;;;;;;;7.71;100.00;99982.66;4997761;28;19924;-85
2023/01/21 03:33:38;;;;;;;;;;;;;;;7.72;100.00;99988.78;4997670;28;20424;-86
2023/01/21 03:36:07;;;;;;;;;;;;;;;7.72;100.00;99996.69;4997701;28;19918;-86
2023/01/21 03:38:40;;;;;;;;;;;;;;;7.73;100.00;99993.16;5014662;28;20311;-86
2023/01/21 03:41:35;;;;;;;;;;;;;;;7.69;100.00;99992.38;4997386;28;20377;-87
2023/01/21 03:44:00;;;;;;;;;;;;;;;7.69;100.00;100002.94;4984910;28;19960;-86
2023/01/21 03:46:34;;;;;;;;;;;;;;;7.68;100.00;100003.84;4997486;28;19968;-86
2023/01/21 03:49:03;;;;;;;;;;;;;;;7.69;100.00;100002.94;5015357;28;19923;-85
2023/01/21 03:51:32;;;;;;;;;;;;;;;7.70;100.00;100011.72;4996018;28;19921;-83
2023/01/21 03:53:58;;;;;;;;;;;;;;;7.69;100.00;100017.88;4997315;28;19918;-84
2023/01/21 03:56:26;;;;;;;;;;;;;;;7.66;100.00;100023.22;4997288;28;20361;-82
2023/01/21 03:58:52;;;;;;;;;;;;;;;7.67;100.00;100031.09;4997083;28;19924;-82
2023/01/21 04:01:17;;;;;;;;;;;;;;;7.67;100.00;100028.47;4997045;28;19917;-82
2023/01/21 04:03:42;;;;;;;;;;;;;;;7.68;100.00;100039.91;4997030;28;19987;-83
2023/01/21 04:06:18;;;;;;;;;;;;;;;7.67;100.00;100031.09;4996337;28;20378;-83
2023/01/21 04:08:44;;;;;;;;;;;;;;;7.68;100.00;100032.84;4996836;28;20404;-83
2023/01/21 04:11:09;;;;;;;;;;;;;;;7.68;100.00;100043.41;5014635;28;19913;-82
2023/01/21 04:13:34;;;;;;;;;;;;;;;7.71;100.00;100038.03;4996854;28;19924;-82
2023/01/21 04:15:59;;;;;;;;;;;;;;;7.69;100.00;100054.81;4996981;28;19918;-83
2023/01/21 04:18:25;;;;;;;;;;;;;;;7.70;100.00;100048.63;4996763;28;20278;-82
2023/01/21 04:20:50;;;;;;;;;;;;;;;7.70;100.00;100062.69;4996628;28;19932;-82
2023/01/21 04:23:15;;;;;;;;;;;;;;;7.70;100.00;100060.03;5012941;28;19929;-82
2023/01/21 04:25:41;;;;;;;;;;;;;;;7.72;100.00;100062.63;4996543;28;19921;-83
2023/01/21 04:28:06;;;;;;;;;;;;;;;7.70;100.00;100070.59;5014322;28;19924;-83
2023/01/21 04:30:31;;;;;;;;;;;;;;;7.73;100.00;100073.16;5014253;28;20324;-83
2023/01/21 04:32:57;;;;;;;;;;;;;;;7.71;100.00;100074.13;5014176;28;19919;-82
2023/01/21 04:35:22;;;;;;;;;;;;;;;7.70;100.00;100075.00;5014165;28;20368;-83
2023/01/21 04:37:47;;;;;;;;;;;;;;;7.71;100.00;100090.78;4994320;28;20424;-82
2023/01/21 04:40:12;;;;;;;;;;;;;;;7.73;100.00;100098.66;5014018;28;19918;-82
2023/01/21 04:42:39;;;;;;;;;;;;;;;7.71;100.00;100101.34;5014013;28;20400;-83
2023/01/21 04:45:04;;;;;;;;;;;;;;;7.72;100.00;100102.19;5014016;28;19924;-83
2023/01/21 04:47:29;;;;;;;;;;;;;;;7.70;100.00;100114.56;5013993;28;20292;-84
2023/01/21 04:49:55;;;;;;;;;;;;;;;7.71;100.00;100117.16;5013668;28;19917;-83
2023/01/21 04:52:20;;;;;;;;;;;;;;;7.72;100.00;100124.19;5012612;28;19921;-83
2023/01/21 09:00:09;;;;;;;;;;;;;;;7.58;100.00;100514.84;4974997;28;20039;-91
2023/01/21 09:02:34;;;;;;;;;;;;;;;7.58;100.00;100521.91;4957182;28;19922;-88
2023/01/21 09:04:59;;;;;;;;;;;;;;;7.58;100.00;100525.41;4973521;28;19918;-83
2023/01/21 09:07:24;;;;;;;;;;;;;;;7.58;100.00;100532.47;4974716;28;19918;-83
2023/01/21 09:09:50;;;;;;;;;;;;;;;7.60;100.00;100525.38;4974748;28;19926;-90
2023/01/21 09:12:15;;;;;;;;;;;;;;;7.57;100.00;100528.06;4973429;28;20296;-85
2023/01/21 09:14:40;;;;;;;;;;;;;;;7.58;100.00;100533.31;4957242;28;19918;-85
2023/01/21 09:17:06;;;;;;;;;;;;;;;7.58;100.00;100535.09;4974617;28;19918;-87
2023/01/21 09:19:31;;;;;;;;;;;;;;;7.58;100.00;100535.94;4974642;28;19922;-92
2023/01/21 09:21:56;;;;;;;;;;;;;;;7.57;100.00;100536.84;4973270;28;19918;-84
2023/01/21 09:24:22;;;;;;;;;;;;;;;7.58;100.00;100538.59;4974147;28;20289;-83
2023/01/21 09:26:51;;;;;;;;;;;;;;;7.59;100.00;100537.66;4957094;28;19918;-84
2023/01/21 09:29:16;;;;;;;;;;;;;;;7.60;100.00;100546.47;4955929;28;19918;-84
2023/01/21 09:31:41;;;;;;;;;;;;;;;7.57;100.00;100551.81;4956987;28;19918;-82
2023/01/21 09:34:09;;;;;;;;;;;;;;;7.58;100.00;100550.91;4974370;28;20392;-87
2023/01/21 09:36:34;;;;;;;;;;;;;;;7.59;100.00;100557.91;4957042;28;19922;-83
2023/01/21 09:39:00;;;;;;;;;;;;;;;7.58;100.00;100564.09;4974358;28;20042;-83
2023/01/21 09:41:40;;;;;;;;;;;;;;;7.58;100.00;100570.25;4974281;28;19918;-87
2023/01/21 09:44:24;;;;;;;;;;;;;;;7.61;100.00;100564.03;4972852;28;19918;-87
2023/01/21 09:47:11;;;;;;;;;;;;;;;7.58;100.00;100564.09;4974350;28;20460;-84
2023/01/21 09:49:41;;;;;;;;;;;;;;;7.57;100.00;100562.34;4974193;28;20026;-90
2023/01/21 09:52:12;;;;;;;;;;;;;;;7.55;100.00;100574.72;4974400;28;19924;-85
2023/01/21 09:54:38;;;;;;;;;;;;;;;7.54;100.00;100579.09;4974060;28;20329;-85
2023/01/21 09:57:11;;;;;;;;;;;;;;;7.56;100.00;100573.78;4974335;28;20413;-85
2023/01/21 09:59:54;;;;;;;;;;;;;;;7.55;100.00;100579.97;4973340;28;20361;-88
2023/01/21 10:02:32;;;;;;;;;;;;;;;7.57;100.00;100586.09;4974060;28;20373;-88
2023/01/21 10:05:01;;;;;;;;;;;;;;;7.58;100.00;100590.47;4974100;28;19926;-85
2023/01/21 10:07:32;;;;;;;;;;;;;;;7.56;100.00;100593.16;4974266;28;19967;-89
2023/01/21 10:10:04;;;;;;;;;;;;;;;7.54;100.00;100589.63;4956651;28;20451;-85
2023/01/21 10:12:32;;;;;;;;;;;;;;;7.58;100.00;100587.84;4971522;28;19922;-83
2023/01/21 10:15:05;;;;;;;;;;;;;;;7.58;100.00;100590.47;4973967;28;19925;-84
2023/01/21 10:17:49;;;;;;;;;;;;;;;7.58;100.00;100586.06;4972467;28;19953;-85
2023/01/21 10:20:29;;;;;;;;;;;;;;;7.57;100.00;100592.22;4956589;28;19918;-88
2023/01/21 10:23:12;;;;;;;;;;;;;;;7.58;100.00;100590.47;4973957;28;19981;-86
2023/01/21 10:25:38;;;;;;;;;;;;;;;7.59;100.00;100595.69;4974141;28;19918;-85
2023/01/21 10:28:16;;;;;;;;;;;;;;;7.57;100.00;100591.38;4971122;28;20472;-84
2023/01/21 10:30:43;;;;;;;;;;;;;;;7.58;100.00;100593.97;4956409;28;19929;-84
2023/01/21 10:33:15;;;;;;;;;;;;;;;7.59;100.00;100594.84;4973945;28;19919;-86
2023/01/21 10:35:40;;;;;;;;;;;;;;;7.61;100.00;100596.56;4974543;28;19961;-84
2023/01/21 10:38:15;;;;;;;;;;;;;;;7.58;100.00;100595.75;4977221;28;19950;-84
2023/01/21 10:40:54;;;;;;;;;;;;;;;7.57;100.00;100597.50;4977050;28;20294;-84
2023/01/21 10:43:22;;;;;;;;;;;;;;;7.58;100.00;100591.34;4976259;28;20320;-84
2023/01/21 10:46:00;;;;;;;;;;;;;;;7.59;100.00;100602.75;4977135;28;19918;-84
2023/01/21 10:48:44;;;;;;;;;;;;;;;7.60;100.00;100596.59;4944238;28;19922;-86
2023/01/21 10:51:15;;;;;;;;;;;;;;;7.58;100.00;100601.03;4959691;28;20489;-84
2023/01/21 10:53:40;;;;;;;;;;;;;;;7.57;100.00;100596.63;4959680;28;20282;-87
2023/01/21 10:56:25;;;;;;;;;;;;;;;7.59;100.00;100613.31;4959767;28;19925;-84
2023/01/21 10:59:00;;;;;;;;;;;;;;;7.58;100.00;100608.94;4975519;28;20009;-85
2023/01/21 11:01:33;;;;;;;;;;;;;;;7.57;100.00;100615.97;4976807;28;19918;-84
2023/01/21 11:04:03;;;;;;;;;;;;;;;7.54;100.00;100604.59;4976943;28;19918;-84
2023/01/21 11:06:31;;;;;;;;;;;;;;;7.54;100.00;100604.59;4976870;28;19972;-83
2023/01/21 11:08:58;;;;;;;;;;;;;;;7.54;100.00;100609.88;4976726;28;19925;-86
2023/01/21 11:11:29;;;;;;;;;;;;;;;7.53;100.00;100606.38;4976751;28;19918;-87
2023/01/21 11:13:55;;;;;;;;;;;;;;;7.50;100.00;100610.81;4957797;28;20284;-85
2023/01/21 11:16:34;;;;;;;;;;;;;;;7.51;100.00;100609.94;4959364;28;19955;-84
2023/01/21 11:19:03;;;;;;;;;;;;;;;7.51;100.00;100618.69;4959198;28;19918;-87
2023/01/21 11:21:28;;;;;;;;;;;;;;;7.49;100.00;100625.78;4959171;28;19925;-86
2023/01/21 11:24:16;;;;;;;;;;;;;;;7.50;100.00;100613.44;4959158;28;19918;-84
2023/01/21 11:26:49;;;;;;;;;;;;;;;7.51;100.00;100620.47;4975227;28;19924;-84
2023/01/21 11:29:15;;;;;;;;;;;;;;;7.52;100.00;100619.59;4957626;28;19918;-84
2023/01/21 11:31:46;;;;;;;;;;;;;;;7.51;100.00;100623.13;4976355;28;19929;-83
2023/01/21 11:34:13;;;;;;;;;;;;;;;7.51;100.00;100615.19;4958953;28;20266;-84
2023/01/21 11:36:52;;;;;;;;;;;;;;;7.50;100.00;100618.72;4958862;28;19924;-86
2023/01/21 11:39:21;;;;;;;;;;;;;;;7.49;100.00;100622.28;4958831;28;19918;-85
2023/01/21 11:41:57;;;;;;;;;;;;;;;7.52;100.00;100625.72;4958785;28;20407;-84
2023/01/21 11:44:23;;;;;;;;;;;;;;;7.53;100.00;100613.41;4957494;28;19925;-84
2023/01/21 11:46:49;;;;;;;;;;;;;;;7.50;100.00;100616.97;4958272;28;19918;-84
2023/01/21 11:49:14;;;;;;;;;;;;;;;7.51;100.00;100617.84;4958560;28;19976;-85
2023/01/21 11:51:46;;;;;;;;;;;;;;;7.51;100.00;100620.47;4958505;28;20338;-86
2023/01/21 11:54:16;;;;;;;;;;;;;;;7.50;100.00;100613.44;4955627;28;20365;-85
2023/01/21 11:56:52;;;;;;;;;;;;;;;7.48;100.00;100610.84;4975893;28;19918;-84
2023/01/21 11:59:23;;;;;;;;;;;;;;;7.50;100.00;100608.19;4974418;28;19922;-85
2023/01/21 12:02:09;;;;;;;;;;;;;;;7.49;100.00;100607.31;4975588;28;19965;-87
2023/01/21 12:04:34;;;;;;;;;;;;;;;7.52;100.00;100598.50;4957980;28;19925;-86
2023/01/21 12:07:00;;;;;;;;;;;;;;;7.49;100.00;100602.03;4975729;28;19918;-84
2023/01/21 12:09:26;;;;;;;;;;;;;;;7.49;100.00;100599.41;4974470;28;19941;-87
2023/01/21 12:12:12;;;;;;;;;;;;;;;7.52;100.00;100596.72;4975583;28;20037;-84
2023/01/21 12:14:52;;;;;;;;;;;;;;;7.52;100.00;100591.44;4974871;28;20303;-84
2023/01/21 12:17:36;;;;;;;;;;;;;;;7.53;100.00;100590.56;4975504;28;19921;-85
2023/01/21 12:20:10;;;;;;;;;;;;;;;7.53;100.00;100584.38;4974054;28;19918;-84
2023/01/21 12:22:58;;;;;;;;;;;;;;;7.53;100.00;100582.66;4975349;28;19918;-85
2023/01/21 12:25:37;;;;;;;;;;;;;;;7.50;100.00;100572.16;4975366;28;20001;-83
2023/01/21 12:28:20;;;;;;;;;;;;;;;7.53;100.00;100573.84;4973967;28;19918;-85
2023/01/21 12:31:01;;;;;;;;;;;;;;;7.53;100.00;100569.47;4975273;28;19918;-84
2023/01/21 12:33:29;;;;;;;;;;;;;;;7.52;100.00;100575.63;4975211;28;19965;-84
2023/01/21 12:35:57;;;;;;;;;;;;;;;7.52;100.00;100569.50;4975210;28;19925;-86
2023/01/21 12:38:26;;;;;;;;;;;;;;;7.51;100.00;100567.72;4957848;28;19918;-83
2023/01/21 12:40:58;;;;;;;;;;;;;;;7.52;100.00;100574.75;4941687;28;20352;-83
2023/01/21 12:43:34;;;;;;;;;;;;;;;7.48;100.00;100570.44;4973956;28;19918;-84
2023/01/21 12:46:10;;;;;;;;;;;;;;;7.50;100.00;100563.34;4974951;28;19918;-84
2023/01/21 12:48:54;;;;;;;;;;;;;;;7.51;100.00;100560.69;4973840;28;19973;-86
2023/01/21 12:51:23;;;;;;;;;;;;;;;7.50;100.00;100563.34;4974935;28;19918;-84
2023/01/21 12:53:54;;;;;;;;;;;;;;;7.51;100.00;100563.31;4975036;28;19918;-84
2023/01/21 12:56:19;;;;;;;;;;;;;;;7.52;100.00;100569.50;4957494;28;20029;-86
2023/01/21 12:58:55;;;;;;;;;;;;;;;7.50;100.00;100576.53;4972761;28;20009;-86
2023/01/21 13:01:36;;;;;;;;;;;;;;;7.51;100.00;100562.47;4957355;28;19925;-86
2023/01/21 13:04:05;;;;;;;;;;;;;;;7.53;100.00;100565.94;4957252;28;19918;-86
2023/01/21 13:06:37;;;;;;;;;;;;;;;7.51;100.00;100568.59;4957302;28;20378;-86
2023/01/21 13:09:25;;;;;;;;;;;;;;;7.52;100.00;100566.84;4957220;28;19944;-86
2023/01/21 13:11:53;;;;;;;;;;;;;;;7.51;100.00;100560.69;4957150;28;19977;-86
2023/01/21 13:14:24;;;;;;;;;;;;;;;7.51;100.00;100565.09;4973544;28;19934;-84
2023/01/21 13:16:52;;;;;;;;;;;;;;;7.53;100.00;100569.47;4974520;28;19918;-87
2023/01/21 13:19:19;;;;;;;;;;;;;;;7.53;100.00;100571.19;4974552;28;20013;-84
2023/01/21 13:21:51;;;;;;;;;;;;;;;7.55;100.00;100566.78;4973014;28;20373;-87
2023/01/21 13:24:24;;;;;;;;;;;;;;;7.54;100.00;100576.44;4957288;28;19930;-86
2023/01/21 13:27:02;;;;;;;;;;;;;;;7.55;100.00;100580.84;4957093;28;19918;-87
2023/01/21 13:29:27;;;;;;;;;;;;;;;7.53;100.00;100574.75;4973143;28;19989;-88
2023/01/21 13:31:52;;;;;;;;;;;;;;;7.51;100.00;100579.16;4974485;28;20374;-87
2023/01/21 13:34:17;;;;;;;;;;;;;;;7.54;100.00;100586.16;4974427;28;19930;-89
2023/01/21 13:37:01;;;;;;;;;;;;;;;7.52;100.00;100587.94;4974390;28;19925;-86
2023/01/21 13:39:30;;;;;;;;;;;;;;;7.54;100.00;100586.16;4974344;28;19918;-87
2023/01/21 13:42:08;;;;;;;;;;;;;;;7.53;100.00;100589.66;4974185;28;20417;-88
2023/01/21 13:44:53;;;;;;;;;;;;;;;7.54;100.00;100588.78;4973024;28;20036;-85
2023/01/21 13:47:37;;;;;;;;;;;;;;;7.55;100.00;100583.47;4974507;28;19914;-89
2023/01/21 13:50:05;;;;;;;;;;;;;;;7.57;100.00;100599.28;4972945;28;19960;-89
2023/01/21 13:52:55;;;;;;;;;;;;;;;7.57;100.00;100601.91;4957279;28;19961;-85
2023/01/21 13:55:20;;;;;;;;;;;;;;;7.55;100.00;100598.44;4974261;28;19921;-84
2023/01/21 13:58:03;;;;;;;;;;;;;;;7.54;100.00;100607.25;4972832;28;19918;-84
2023/01/21 14:00:28;;;;;;;;;;;;;;;7.53;100.00;100609.03;4974038;28;19945;-86
2023/01/21 14:03:03;;;;;;;;;;;;;;;7.53;100.00;100602.84;4973861;28;20370;-85
2023/01/21 14:05:33;;;;;;;;;;;;;;;7.55;100.00;100612.50;4974115;28;20270;-84
2023/01/21 14:08:10;;;;;;;;;;;;;;;7.53;100.00;100623.94;4974129;28;20402;-84
2023/01/21 14:10:40;;;;;;;;;;;;;;;7.55;100.00;100624.81;4976262;28;19918;-85
2023/01/21 14:13:38;;;;;;;;;;;;;;;7.51;100.00;100626.63;4976401;28;19918;-84
2023/01/21 14:16:03;;;;;;;;;;;;;;;7.51;100.00;100631.88;4944995;28;19973;-85
2023/01/21 14:18:48;;;;;;;;;;;;;;;7.52;100.00;100643.31;4977791;28;19922;-85
2023/01/21 14:21:22;;;;;;;;;;;;;;;7.51;100.00;100646.84;4977463;28;19924;-85
2023/01/21 14:23:53;;;;;;;;;;;;;;;7.50;100.00;100650.38;4977984;28;20119;-85
2023/01/21 14:26:37;;;;;;;;;;;;;;;7.50;100.00;100648.63;4977426;28;19929;-84
2023/01/21 14:29:15;;;;;;;;;;;;;;;7.49;100.00;100659.19;4974882;28;19941;-84
2023/01/21 14:31:46;;;;;;;;;;;;;;;7.51;100.00;100657.41;4976140;28;20314;-84
2023/01/21 14:34:23;;;;;;;;;;;;;;;7.51;100.00;100660.03;4977187;28;19929;-84
2023/01/21 14:37:05;;;;;;;;;;;;;;;7.51;100.00;100662.66;4977352;28;19919;-85
2023/01/21 14:39:41;;;;;;;;;;;;;;;7.51;100.00;100665.31;4959772;28;20300;-84
2023/01/21 14:42:09;;;;;;;;;;;;;;;7.53;100.00;100668.78;4975767;28;19918;-84
2023/01/21 14:44:34;;;;;;;;;;;;;;;7.52;100.00;100659.16;4958267;28;19918;-84
2023/01/21 14:47:29;;;;;;;;;;;;;;;7.52;100.00;100667.94;4959891;28;19929;-87
2023/01/21 14:49:56;;;;;;;;;;;;;;;7.51;100.00;100673.22;4924311;28;20005;-87
2023/01/21 14:52:29;;;;;;;;;;;;;;;7.52;100.00;100673.19;4976864;28;20012;-88
2023/01/21 14:54:55;;;;;;;;;;;;;;;7.53;100.00;100677.59;4956054;28;19922;-89
2023/01/21 14:57:31;;;;;;;;;;;;;;;7.50;100.00;100679.38;4974067;28;19937;-84
2023/01/21 15:00:20;;;;;;;;;;;;;;;7.51;100.00;100679.34;4973976;28;19922;-88
2023/01/21 15:02:47;;;;;;;;;;;;;;;7.38;100.00;100685.72;4974840;28;19922;-86
2023/01/21 15:05:20;;;;;;;;;;;;;;;7.41;100.00;100689.19;4974770;28;20012;-85
2023/01/21 15:07:48;;;;;;;;;;;;;;;7.41;100.00;100690.97;4971995;28;20016;-83
2023/01/21 15:10:16;;;;;;;;;;;;;;;7.37;100.00;100687.50;4970224;28;19930;-86
2023/01/21 15:12:45;;;;;;;;;;;;;;;7.37;100.00;100694.53;4978449;28;19969;-85
2023/01/21 15:15:25;;;;;;;;;;;;;;;7.37;100.00;100698.06;4972580;28;19933;-87
2023/01/21 15:17:53;;;;;;;;;;;;;;;7.32;100.00;100699.00;4968451;28;20638;-83
2023/01/21 15:20:40;;;;;;;;;;;;;;;7.33;100.00;100698.97;4969948;28;19929;-86
2023/01/21 15:23:19;;;;;;;;;;;;;;;7.35;100.00;100712.16;4974830;28;19922;-87
2023/01/21 15:26:04;;;;;;;;;;;;;;;7.33;100.00;100712.16;4947630;28;19929;-89
2023/01/21 15:28:39;;;;;;;;;;;;;;;7.32;100.00;100715.69;4956808;28;19977;-88
2023/01/21 15:31:08;;;;;;;;;;;;;;;7.32;100.00;100720.97;4976197;28;19922;-86
2023/01/21 15:33:54;;;;;;;;;;;;;;;7.34;100.00;100721.81;4958471;28;20306;-83
2023/01/21 15:36:23;;;;;;;;;;;;;;;7.38;100.00;100723.50;4957647;28;19929;-84
2023/01/21 15:38:49;;;;;;;;;;;;;;;7.38;100.00;100726.13;4960562;28;19957;-86
2023/01/21 15:41:23;;;;;;;;;;;;;;;7.35;100.00;100726.19;4995601;28;20329;-86
2023/01/21 15:43:58;;;;;;;;;;;;;;;7.34;100.00;100734.13;4976990;28;20012;-89
2023/01/21 15:46:43;;;;;;;;;;;;;;;7.37;100.00;100728.81;4964894;28;20309;-87
2023/01/21 15:49:12;;;;;;;;;;;;;;;7.39;100.00;100722.63;4955728;28;19922;-83
2023/01/21 15:51:55;;;;;;;;;;;;;;;7.38;100.00;100720.88;4975698;28;19930;-86
2023/01/21 15:54:33;;;;;;;;;;;;;;;7.38;100.00;100728.78;4969322;28;19926;-87
2023/01/21 15:57:15;;;;;;;;;;;;;;;7.41;100.00;100725.25;4965070;28;20299;-86
2023/01/21 15:59:59;;;;;;;;;;;;;;;7.41;100.00;100722.59;4982233;28;19932;-92
2023/01/21 16:02:30;;;;;;;;;;;;;;;7.42;100.00;100727.84;4969281;28;19929;-91
2023/01/21 16:05:08;;;;;;;;;;;;;;;7.39;100.00;100727.91;4959187;28;19922;-89
2023/01/21 16:07:49;;;;;;;;;;;;;;;7.44;100.00;100725.19;4993847;28;20443;-87
2023/01/21 16:10:15;;;;;;;;;;;;;;;7.41;100.00;100725.25;4993202;28;20386;-85
2023/01/21 16:12:40;;;;;;;;;;;;;;;7.40;100.00;100724.38;4977275;28;19926;-85
2023/01/21 16:15:20;;;;;;;;;;;;;;;7.41;100.00;100730.50;4976759;28;20057;-85
2023/01/21 16:17:49;;;;;;;;;;;;;;;7.41;100.00;100731.38;4982106;28;19964;-84
2023/01/21 16:20:16;;;;;;;;;;;;;;;7.43;100.00;100729.56;4988527;28;19918;-84
2023/01/21 16:22:43;;;;;;;;;;;;;;;7.43;100.00;100721.66;4985984;28;19977;-84
2023/01/21 16:25:12;;;;;;;;;;;;;;;7.44;100.00;100728.69;4982203;28;20383;-89
2023/01/21 16:27:37;;;;;;;;;;;;;;;7.41;100.00;100727.88;4999863;28;20257;-88
2023/01/21 16:30:11;;;;;;;;;;;;;;;7.40;100.00;100731.41;4973408;28;20293;-86
2023/01/21 16:32:39;;;;;;;;;;;;;;;7.39;100.00;100738.44;4982956;28;19953;-89
2023/01/21 16:35:04;;;;;;;;;;;;;;;7.41;100.00;100731.38;4981496;28;19921;-88
2023/01/21 16:37:33;;;;;;;;;;;;;;;7.40;100.00;100742.84;4979298;28;19929;-86
2023/01/21 16:40:10;;;;;;;;;;;;;;;7.40;100.00;100742.84;4996919;28;20025;-86
2023/01/21 16:42:36;;;;;;;;;;;;;;;7.39;100.00;100748.13;4992492;28;19929;-85
2023/01/21 16:45:15;;;;;;;;;;;;;;;7.38;100.00;100749.88;4991489;28;19940;-86
2023/01/21 16:47:40;;;;;;;;;;;;;;;7.38;100.00;100749.88;4975224;28;19926;-87
2023/01/21 16:50:16;;;;;;;;;;;;;;;7.37;100.00;100756.06;4991134;28;19922;-85
2023/01/21 16:52:42;;;;;;;;;;;;;;;7.36;100.00;100750.81;4991006;28;19956;-84
2023/01/21 16:55:16;;;;;;;;;;;;;;;7.36;100.00;100751.66;4994265;28;19958;-86
2023/01/21 16:57:46;;;;;;;;;;;;;;;7.37;100.00;100749.91;4974666;28;19980;-86
2023/01/21 17:00:20;;;;;;;;;;;;;;;7.38;100.00;100754.28;4991523;28;19976;-87
2023/01/21 17:02:47;;;;;;;;;;;;;;;7.38;100.00;100751.66;4992902;28;19929;-86
2023/01/21 17:05:14;;;;;;;;;;;;;;;7.39;100.00;100754.25;4991533;28;20461;-85
2023/01/21 17:07:42;;;;;;;;;;;;;;;7.39;100.00;100750.75;4991141;28;20300;-86
2023/01/21 17:10:14;;;;;;;;;;;;;;;7.41;100.00;100751.59;4983892;28;19968;-86
2023/01/21 17:12:44;;;;;;;;;;;;;;;7.42;100.00;100758.63;4975933;28;20032;-86
2023/01/21 17:15:17;;;;;;;;;;;;;;;7.39;100.00;100764.81;4968959;28;19925;-82
2023/01/21 17:17:43;;;;;;;;;;;;;;;7.41;100.00;100768.28;4990476;28;19922;-88
2023/01/21 17:20:27;;;;;;;;;;;;;;;7.39;100.00;100772.72;4985207;28;19922;-85
2023/01/21 17:22:52;;;;;;;;;;;;;;;7.39;100.00;100770.09;4974703;28;19922;-85
2023/01/21 17:25:23;;;;;;;;;;;;;;;7.41;100.00;100772.69;4974843;28;19995;-85
2023/01/21 17:27:49;;;;;;;;;;;;;;;7.39;100.00;100775.34;4986901;28;20270;-89
2023/01/21 17:30:30;;;;;;;;;;;;;;;7.40;100.00;100769.22;4990616;28;19922;-85
2023/01/21 17:32:57;;;;;;;;;;;;;;;7.41;100.00;100772.69;4973210;28;19928;-84
2023/01/21 17:35:23;;;;;;;;;;;;;;;7.38;100.00;100767.47;4990236;28;19930;-86
2023/01/21 17:37:53;;;;;;;;;;;;;;;7.41;100.00;100770.94;4975244;28;19918;-92
2023/01/21 17:40:28;;;;;;;;;;;;;;;7.37;100.00;100763.97;4961792;28;19972;-87
2023/01/21 17:42:54;;;;;;;;;;;;;;;7.39;100.00;100770.09;4984771;28;20026;-87
2023/01/21 17:45:29;;;;;;;;;;;;;;;7.38;100.00;100770.09;4974457;28;19922;-86
2023/01/21 17:47:55;;;;;;;;;;;;;;;7.37;100.00;100766.59;4977555;28;20021;-89
2023/01/21 17:50:26;;;;;;;;;;;;;;;7.39;100.00;100762.19;4990638;28;20022;-86
2023/01/21 17:52:54;;;;;;;;;;;;;;;7.40;100.00;100770.94;5005153;28;19922;-86
2023/01/21 17:55:27;;;;;;;;;;;;;;;7.39;100.00;100767.44;4991085;28;19976;-87
2023/01/21 17:57:53;;;;;;;;;;;;;;;7.39;100.00;100762.19;4980728;28;20449;-88
2023/01/21 18:00:29;;;;;;;;;;;;;;;7.39;100.00;100764.81;4994785;28;19933;-88
2023/01/21 18:02:55;;;;;;;;;;;;;;;7.38;100.00;100763.06;4980445;28;19921;-89
2023/01/21 18:05:21;;;;;;;;;;;;;;;7.40;100.00;100771.84;4977408;28;20274;-87
2023/01/21 18:07:46;;;;;;;;;;;;;;;7.35;100.00;100765.72;4991401;28;19945;-85
2023/01/21 18:10:17;;;;;;;;;;;;;;;7.35;100.00;100765.72;4978241;28;20353;-85
2023/01/21 18:12:42;;;;;;;;;;;;;;;7.37;100.00;100766.59;4993211;28;19933;-87
2023/01/21 18:15:11;;;;;;;;;;;;;;;7.38;100.00;100773.59;4977587;28;19917;-88
2023/01/21 18:17:37;;;;;;;;;;;;;;;7.39;100.00;100770.09;5006048;28;19976;-87
2023/01/21 18:20:03;;;;;;;;;;;;;;;7.39;100.00;100766.59;4991790;28;19918;-88
2023/01/21 18:22:29;;;;;;;;;;;;;;;7.40;100.00;100760.41;4992171;28;19922;-87
2023/01/21 18:24:54;;;;;;;;;;;;;;;7.32;100.00;100760.50;4995939;28;19926;-91
2023/01/21 18:27:22;;;;;;;;;;;;;;;7.33;100.00;100758.75;4995511;28;19965;-87
2023/01/21 18:29:48;;;;;;;;;;;;;;;7.37;100.00;100766.59;4978649;28;20414;-85
2023/01/21 18:32:14;;;;;;;;;;;;;;;7.37;100.00;100761.34;4995887;28;19968;-87
2023/01/21 18:34:39;;;;;;;;;;;;;;;7.39;100.00;100758.69;4991707;28;19921;-88
2023/01/21 18:37:15;;;;;;;;;;;;;;;7.38;100.00;100754.28;4977147;28;19957;-89
2023/01/21 18:39:40;;;;;;;;;;;;;;;7.38;100.00;100754.28;4993873;28;20659;-88
2023/01/21 18:42:09;;;;;;;;;;;;;;;7.38;100.00;100763.06;4973311;28;19929;-82
2023/01/21 18:44:34;;;;;;;;;;;;;;;7.37;100.00;100760.44;4992627;28;20392;-89
2023/01/21 18:47:00;;;;;;;;;;;;;;;7.37;100.00;100761.34;4994825;28;19952;-89
2023/01/21 18:49:27;;;;;;;;;;;;;;;7.36;100.00;100759.56;4994750;28;20015;-91
2023/01/21 18:51:53;;;;;;;;;;;;;;;7.38;100.00;100767.47;4979224;28;19925;-91
2023/01/21 18:54:18;;;;;;;;;;;;;;;7.37;100.00;100774.53;4990647;28;19918;-87
2023/01/21 18:56:44;;;;;;;;;;;;;;;7.37;100.00;100771.88;4988273;28;19934;-90
2023/01/21 18:59:14;;;;;;;;;;;;;;;7.36;100.00;100780.69;4994834;28;19922;-84
2023/01/21 19:01:39;;;;;;;;;;;;;;;7.36;100.00;100775.41;4994762;28;20034;-88
2023/01/21 19:04:06;;;;;;;;;;;;;;;7.39;100.00;100785.03;4992714;28;19992;-86